createdAt,value
2022-08-07T00:02:44.947Z,7.5
2022-08-07T00:16:51.503Z,7.6
2022-08-07T00:31:19.613Z,7.7
2022-08-07T00:45:51.024Z,7.9
2022-08-07T01:00:16.095Z,8.1
2022-08-07T01:14:49.779Z,7.7
2022-08-07T01:29:16.758Z,7.9
2022-08-07T01:43:43.294Z,7.9
2022-08-07T01:58:40.971Z,8.1
2022-08-07T02:12:54.321Z,8.1
2022-08-07T02:27:23.120Z,7.8
2022-08-07T02:41:56.744Z,7.7
2022-08-07T02:56:31.963Z,7.6
2022-08-07T03:10:51.242Z,7.8
2022-08-07T03:25:22.944Z,7.9
2022-08-07T03:40:17.275Z,7.6
2022-08-07T03:55:07.806Z,7.7
2022-08-07T04:09:24.603Z,7.8
2022-08-07T04:24:08.311Z,7.8
2022-08-07T04:38:26.473Z,7.8
2022-08-07T04:52:54.224Z,7.9
2022-08-07T05:07:51.636Z,7.9
2022-08-07T05:22:09.796Z,7.8
2022-08-07T05:36:39.612Z,8.3
2022-08-07T05:51:05.377Z,8.4
2022-08-07T06:05:34.446Z,8.7
2022-08-07T06:20:05.912Z,8.9
2022-08-07T06:34:40.755Z,9.1
2022-08-07T06:49:08.489Z,9.3
2022-08-07T07:04:33.971Z,9
2022-08-07T07:18:49.037Z,8.1
2022-08-07T07:33:15.334Z,8.4
2022-08-07T07:48:03.703Z,8.7
2022-08-07T08:03:08.133Z,9.4
2022-08-07T08:18:19.170Z,8.9
2022-08-07T08:32:41.495Z,8.5
2022-08-07T08:46:56.964Z,8
2022-08-07T09:01:49.764Z,8.4
2022-08-07T09:16:31.103Z,8.2
2022-08-07T09:30:46.372Z,7.2
2022-08-07T09:48:14.336Z,7.1
2022-08-07T10:01:59.786Z,7.3
2022-08-07T10:16:28.027Z,7.5
2022-08-07T10:30:55.361Z,7.5
2022-08-07T10:45:58.935Z,7.4
2022-08-07T11:00:56.172Z,7.9
2022-08-07T11:15:01.584Z,8.2
2022-08-07T11:30:19.241Z,8.4
2022-08-07T11:44:26.414Z,7.6
2022-08-07T11:58:53.138Z,7.3
2022-08-07T12:13:47.971Z,7.1
2022-08-07T12:28:12.098Z,7.2
2022-08-07T12:42:35.081Z,7.4
2022-08-07T12:57:10.560Z,7.7
2022-08-07T13:12:15.953Z,7.7
2022-08-07T13:26:26.840Z,7.7
2022-08-07T13:40:54.963Z,7.8
2022-08-07T13:55:27.328Z,8
2022-08-07T14:10:31.576Z,7.8
2022-08-07T14:24:44.873Z,8.4
2022-08-07T14:40:28.149Z,8
2022-08-07T15:52:02.456Z,8.1
2022-08-07T16:05:43.312Z,8.5
2022-08-07T16:20:08.537Z,8.9
2022-08-07T16:34:36.211Z,9.2
2022-08-07T16:51:13.633Z,8.6
2022-08-07T17:06:45.282Z,8.6
2022-08-07T17:20:47.117Z,8.8
2022-08-07T17:35:56.329Z,8.6
2022-08-07T17:50:04.906Z,8.5
2022-08-07T18:04:35.418Z,8.6
2022-08-07T18:22:08.560Z,8
2022-08-07T18:35:58.963Z,7.7
2022-08-07T18:50:47.140Z,8.1
2022-08-07T19:05:18.168Z,8.3
2022-08-07T19:19:32.744Z,8.4
2022-08-07T19:34:03.403Z,8.1
2022-08-07T19:48:29.021Z,8.1
2022-08-07T20:02:55.287Z,8.3
2022-08-07T20:17:23.538Z,8.6
2022-08-07T20:31:51.501Z,8.4
2022-08-07T20:46:45.426Z,8.3
2022-08-07T21:00:56.688Z,8.4
2022-08-07T21:16:01.248Z,8.7
2022-08-07T21:30:09.543Z,8.5
2022-08-07T21:44:36.817Z,8.6
2022-08-07T21:59:04.110Z,8.9
2022-08-07T22:13:57.639Z,8.8
2022-08-07T22:28:33.112Z,8.7
2022-08-07T22:42:47.011Z,8.6
2022-08-07T22:57:17.499Z,8.5
2022-08-07T23:11:46.553Z,8.8
2022-08-07T23:26:10.592Z,8.6
2022-08-07T23:40:41.592Z,8.8
2022-08-07T23:55:09.984Z,8.7
